createdAt,value
2023-04-11T00:01:27.324Z,1.08
2023-04-11T00:03:55.923Z,0.70
2023-04-11T00:06:26.964Z,1.73
2023-04-11T00:08:55.591Z,1.38
2023-04-11T00:11:24.209Z,1.85
2023-04-11T00:13:52.605Z,0.88
2023-04-11T00:16:21.425Z,1.67
2023-04-11T00:18:49.736Z,0.40
2023-04-11T00:21:18.332Z,1.23
2023-04-11T00:23:46.762Z,1.30
2023-04-11T00:26:15.082Z,1.42
2023-04-11T00:28:43.528Z,0.65
2023-04-11T00:31:13.292Z,1.17
2023-04-11T00:33:41.652Z,1.52
2023-04-11T00:36:10.524Z,2.10
2023-04-11T00:38:39.144Z,2.05
2023-04-11T00:41:07.693Z,1.23
2023-04-11T00:43:36.015Z,1.08
2023-04-11T00:46:05.600Z,0.55
2023-04-11T00:48:34.074Z,1.05
2023-04-11T00:51:02.778Z,0.85
2023-04-11T00:53:33.703Z,0.55
2023-04-11T00:56:02.085Z,0.85
2023-04-11T00:58:30.488Z,1.02
2023-04-11T01:00:58.739Z,0.88
2023-04-11T01:03:27.414Z,0.40
2023-04-11T01:05:56.437Z,1.08
2023-04-11T01:08:25.709Z,0.47
2023-04-11T01:10:54.250Z,2.58
2023-04-11T01:13:22.740Z,0.60
2023-04-11T01:15:51.129Z,1.50
2023-04-11T01:18:19.595Z,0.50
2023-04-11T01:20:48.216Z,0.63
2023-04-11T01:23:22.936Z,0.40
2023-04-11T01:25:51.859Z,0.75
2023-04-11T01:28:23.460Z,0.50
2023-04-11T01:30:52.037Z,0.43
2023-04-11T01:33:20.728Z,0.30
2023-04-11T01:35:49.319Z,0.20
2023-04-11T01:38:17.782Z,0.45
2023-04-11T01:40:47.345Z,0.30
2023-04-11T01:43:15.743Z,0.52
2023-04-11T01:45:44.024Z,0.77
2023-04-11T01:48:12.636Z,1.15
2023-04-11T01:50:40.953Z,0.73
2023-04-11T01:53:09.449Z,0.95
2023-04-11T01:55:37.799Z,1.33
2023-04-11T01:58:06.129Z,0.95
2023-04-11T02:00:34.510Z,0.75
2023-04-11T02:03:02.900Z,2.22
2023-04-11T02:05:31.346Z,0.75
2023-04-11T02:07:59.711Z,0.93
2023-04-11T02:10:28.028Z,1.02
2023-04-11T02:12:56.272Z,4.00
2023-04-11T02:15:24.728Z,0.90
2023-04-11T02:17:54.776Z,0.95
2023-04-11T02:20:24.054Z,0.88
2023-04-11T02:22:52.335Z,0.32
2023-04-11T02:25:20.716Z,0.32
2023-04-11T02:27:49.001Z,0.52
2023-04-11T02:30:17.280Z,0.77
2023-04-11T02:32:47.601Z,0.45
2023-04-11T02:35:16.468Z,0.57
2023-04-11T02:37:45.241Z,0.98
2023-04-11T02:40:13.672Z,0.50
2023-04-11T02:42:43.936Z,1.00
2023-04-11T02:45:12.746Z,0.30
2023-04-11T02:47:41.366Z,1.13
2023-04-11T02:50:10.299Z,1.65
2023-04-11T02:52:42.979Z,0.73
2023-04-11T02:55:11.457Z,0.70
2023-04-11T02:57:40.197Z,0.65
2023-04-11T03:00:09.911Z,1.50
2023-04-11T03:02:38.412Z,0.52
2023-04-11T03:05:07.296Z,0.57
2023-04-11T03:07:35.689Z,0.82
2023-04-11T03:10:03.950Z,0.32
2023-04-11T03:12:32.237Z,0.40
2023-04-11T03:15:00.521Z,1.63
2023-04-11T03:17:28.822Z,1.50
2023-04-11T03:19:57.090Z,1.83
2023-04-11T03:22:25.584Z,1.50
2023-04-11T03:24:53.853Z,0.70
2023-04-11T03:27:22.088Z,0.93
2023-04-11T03:29:50.364Z,0.82
2023-04-11T03:32:18.648Z,3.80
2023-04-11T03:34:47.357Z,0.60
2023-04-11T03:37:15.628Z,0.73
2023-04-11T03:39:43.880Z,9.18
2023-04-11T03:42:13.539Z,1.38
2023-04-11T03:44:41.877Z,1.92
2023-04-11T03:47:10.165Z,0.82
2023-04-11T03:49:38.441Z,0.52
2023-04-11T03:52:08.466Z,0.65
2023-04-11T03:54:38.442Z,0.70
2023-04-11T03:57:06.708Z,0.32
2023-04-11T03:59:34.935Z,0.85
2023-04-11T04:02:03.284Z,0.35
2023-04-11T04:04:33.195Z,0.40
2023-04-11T04:07:02.576Z,0.60
2023-04-11T04:09:30.893Z,0.47
2023-04-11T04:11:59.156Z,0.40
2023-04-11T04:14:27.842Z,1.00
2023-04-11T04:16:56.153Z,0.35
2023-04-11T04:19:24.483Z,1.08
2023-04-11T04:21:52.732Z,1.23
2023-04-11T04:24:20.991Z,1.45
2023-04-11T04:26:50.898Z,0.63
2023-04-11T04:29:19.339Z,0.93
2023-04-11T04:31:51.449Z,0.52
2023-04-11T04:34:22.582Z,0.30
2023-04-11T04:36:50.852Z,0.50
2023-04-11T04:39:20.342Z,0.30
2023-04-11T04:41:49.949Z,0.60
2023-04-11T04:44:18.335Z,0.20
2023-04-11T04:46:46.659Z,0.40
2023-04-11T04:49:14.979Z,0.30
2023-04-11T04:51:43.292Z,0.30
2023-04-11T04:54:11.557Z,0.28
2023-04-11T04:56:39.898Z,0.70
2023-04-11T04:59:08.950Z,0.47
2023-04-11T05:01:40.709Z,0.30
2023-04-11T05:04:09.329Z,1.70
2023-04-11T05:06:37.799Z,1.02
2023-04-11T05:09:07.043Z,0.40
2023-04-11T05:11:35.453Z,0.65
2023-04-11T05:14:03.750Z,0.52
2023-04-11T05:16:32.545Z,0.43
2023-04-11T05:19:00.894Z,0.40
2023-04-11T05:21:29.408Z,0.60
2023-04-11T05:23:57.853Z,0.32
2023-04-11T05:26:26.519Z,0.20
2023-04-11T05:28:54.782Z,0.35
2023-04-11T05:31:23.066Z,0.45
2023-04-11T05:33:51.356Z,0.30
2023-04-11T05:36:19.813Z,0.50
2023-04-11T05:38:48.416Z,0.20
2023-04-11T05:41:16.746Z,0.35
2023-04-11T05:43:45.073Z,0.40
2023-04-11T05:46:13.738Z,0.70
2023-04-11T05:48:42.393Z,0.10
2023-04-11T05:51:10.695Z,0.80
2023-04-11T05:53:38.936Z,1.00
2023-04-11T05:56:07.648Z,0.20
2023-04-11T05:58:37.849Z,0.15
2023-04-11T06:01:08.149Z,0.22
2023-04-11T06:03:36.682Z,0.20
2023-04-11T06:06:05.214Z,0.20
2023-04-11T06:08:33.585Z,0.30
2023-04-11T06:11:01.837Z,0.30
2023-04-11T06:13:30.171Z,0.10
2023-04-11T06:15:58.559Z,0.20
2023-04-11T06:18:26.972Z,0.20
2023-04-11T06:20:56.179Z,0.30
2023-04-11T06:23:24.566Z,0.22
2023-04-11T06:25:53.233Z,0.20
2023-04-11T06:28:21.590Z,0.45
2023-04-11T06:30:49.915Z,0.32
2023-04-11T06:33:18.125Z,0.20
2023-04-11T06:35:46.500Z,0.10
2023-04-11T06:38:14.821Z,0.20
2023-04-11T06:40:43.122Z,0.20
2023-04-11T06:43:11.651Z,0.10
2023-04-11T06:45:39.858Z,0.20
2023-04-11T06:48:08.178Z,0.20
2023-04-11T06:50:42.632Z,0.17
2023-04-11T06:53:11.705Z,0.52
2023-04-11T06:55:39.920Z,0.20
2023-04-11T06:58:08.128Z,0.28
2023-04-11T07:00:37.029Z,1.15
2023-04-11T07:03:09.198Z,0.10
2023-04-11T07:05:39.459Z,0.20
2023-04-11T07:08:07.924Z,0.10
2023-04-11T07:10:36.125Z,0.10
2023-04-11T07:13:04.330Z,0.47
2023-04-11T07:15:32.530Z,0.25
2023-04-11T07:18:00.860Z,0.20
2023-04-11T07:20:29.265Z,0.20
2023-04-11T07:22:58.084Z,0.25
2023-04-11T07:25:34.523Z,0.20
2023-04-11T07:28:03.274Z,0.20
2023-04-11T07:30:31.499Z,0.20
2023-04-11T07:32:59.780Z,0.20
2023-04-11T07:35:29.334Z,0.30
2023-04-11T07:37:59.347Z,0.43
2023-04-11T07:40:28.012Z,0.17
2023-04-11T07:42:56.204Z,0.22
2023-04-11T07:45:24.537Z,0.20
2023-04-11T07:47:52.797Z,0.20
2023-04-11T07:50:21.158Z,0.20
2023-04-11T07:52:49.369Z,0.20
2023-04-11T07:55:17.823Z,0.10
2023-04-11T07:57:46.568Z,0.20
2023-04-11T08:00:24.771Z,0.10
2023-04-11T08:02:53.421Z,0.20
2023-04-11T08:05:22.126Z,0.10
2023-04-11T08:07:50.347Z,0.13
2023-04-11T08:10:18.777Z,2.38
2023-04-11T08:12:47.152Z,0.20
2023-04-11T08:15:15.456Z,0.82
2023-04-11T08:17:44.566Z,0.15
2023-04-11T08:20:14.800Z,1.25
2023-04-11T08:22:45.603Z,0.20
2023-04-11T08:25:15.508Z,0.30
2023-04-11T08:27:44.062Z,0.20
2023-04-11T08:30:12.657Z,0.10
2023-04-11T08:32:42.023Z,0.30
2023-04-11T08:35:11.135Z,0.10
2023-04-11T08:37:40.761Z,0.30
2023-04-11T08:40:10.817Z,0.10
2023-04-11T08:42:39.020Z,0.20
2023-04-11T08:45:09.458Z,0.20
2023-04-11T08:47:38.870Z,0.20
2023-04-11T08:50:08.017Z,0.17
2023-04-11T08:52:39.351Z,0.10
2023-04-11T08:55:07.864Z,0.30
2023-04-11T08:57:38.966Z,0.17
2023-04-11T09:00:15.407Z,0.20
2023-04-11T09:03:04.197Z,0.25
2023-04-11T09:05:33.547Z,0.20
2023-04-11T09:08:07.584Z,0.20
2023-04-11T09:10:36.843Z,0.10
2023-04-11T09:13:26.885Z,0.17
2023-04-11T09:16:13.164Z,1.75
2023-04-11T09:18:46.347Z,0.10
2023-04-11T09:21:16.845Z,0.25
2023-04-11T09:23:45.672Z,0.20
2023-04-11T09:26:26.029Z,0.20
2023-04-11T09:28:54.447Z,0.17
2023-04-11T09:31:40.502Z,0.50
2023-04-11T09:34:09.052Z,0.20
2023-04-11T09:36:37.252Z,0.10
2023-04-11T09:39:20.919Z,0.13
2023-04-11T09:41:49.327Z,0.70
2023-04-11T09:44:17.535Z,0.43
2023-04-11T09:46:58.942Z,0.20
2023-04-11T09:49:27.355Z,0.10
2023-04-11T09:51:57.186Z,0.10
2023-04-11T09:54:28.258Z,0.17
2023-04-11T09:56:58.206Z,1.13
2023-04-11T09:59:28.613Z,0.15
2023-04-11T10:01:58.790Z,0.15
2023-04-11T10:04:28.865Z,0.20
2023-04-11T10:07:19.287Z,0.20
2023-04-11T10:09:48.761Z,0.20
2023-04-11T10:12:34.820Z,0.20
2023-04-11T10:15:09.567Z,0.20
2023-04-11T10:17:38.096Z,0.20
2023-04-11T10:20:44.222Z,0.88
2023-04-11T10:23:13.457Z,0.40
2023-04-11T10:26:02.095Z,0.30
2023-04-11T10:28:41.072Z,0.20
2023-04-11T10:31:13.993Z,0.13
2023-04-11T10:34:17.750Z,0.20
2023-04-11T10:37:08.529Z,0.10
2023-04-11T10:39:54.872Z,1.77
2023-04-11T10:42:32.998Z,0.20
2023-04-11T10:45:23.015Z,0.20
2023-04-11T10:48:13.911Z,0.10
2023-04-11T10:50:44.744Z,0.10
2023-04-11T10:53:37.753Z,0.10
2023-04-11T10:56:06.484Z,0.13
2023-04-11T10:58:40.437Z,0.20
2023-04-11T11:01:26.506Z,0.20
2023-04-11T11:04:06.134Z,0.38
2023-04-11T11:06:46.084Z,0.28
2023-04-11T11:09:24.539Z,0.10
2023-04-11T11:12:12.500Z,0.73
2023-04-11T11:14:46.401Z,0.20
2023-04-11T11:17:16.213Z,0.25
2023-04-11T11:19:48.940Z,0.30
2023-04-11T11:22:26.750Z,1.42
2023-04-11T11:24:54.978Z,0.20
2023-04-11T11:27:25.124Z,0.30
2023-04-11T11:29:54.067Z,0.20
2023-04-11T11:32:33.597Z,0.20
2023-04-11T11:35:13.138Z,0.43
2023-04-11T11:37:41.677Z,0.40
2023-04-11T11:40:14.691Z,0.40
2023-04-11T11:42:43.330Z,0.20
2023-04-11T11:45:22.696Z,0.90
2023-04-11T11:47:51.662Z,0.20
2023-04-11T11:50:45.888Z,0.63
2023-04-11T11:53:16.794Z,0.30
2023-04-11T11:55:45.201Z,0.55
2023-04-11T11:58:13.436Z,0.60
2023-04-11T12:00:42.568Z,0.30
2023-04-11T12:03:11.643Z,0.20
2023-04-11T12:05:39.980Z,0.98
2023-04-11T12:08:08.645Z,0.30
2023-04-11T12:10:46.769Z,0.40
2023-04-11T12:13:20.805Z,0.68
2023-04-11T12:15:57.060Z,0.30
2023-04-11T12:18:26.382Z,0.95
2023-04-11T12:20:54.726Z,0.20
2023-04-11T12:23:23.657Z,0.20
2023-04-11T12:25:51.914Z,1.38
2023-04-11T12:28:20.125Z,0.60
2023-04-11T12:30:49.534Z,0.30
2023-04-11T12:33:17.936Z,0.85
2023-04-11T12:35:46.864Z,0.50
2023-04-11T12:38:17.562Z,0.30
2023-04-11T12:40:47.790Z,0.20
2023-04-11T12:43:16.354Z,2.13
2023-04-11T12:45:44.598Z,0.85
2023-04-11T12:48:12.856Z,0.47
2023-04-11T12:50:41.768Z,0.50
2023-04-11T12:53:10.023Z,1.30
2023-04-11T12:55:38.728Z,1.63
2023-04-11T12:58:09.029Z,0.32
2023-04-11T13:00:37.228Z,0.40
2023-04-11T13:03:05.718Z,0.52
2023-04-11T13:05:34.209Z,0.30
2023-04-11T13:08:02.567Z,2.22
2023-04-11T13:10:30.777Z,0.60
2023-04-11T13:13:08.487Z,0.55
2023-04-11T13:15:45.454Z,1.13
2023-04-11T13:18:13.802Z,1.38
2023-04-11T13:20:43.496Z,0.30
2023-04-11T13:23:11.719Z,1.02
2023-04-11T13:25:39.919Z,1.60
2023-04-11T13:28:08.327Z,0.57
2023-04-11T13:30:36.534Z,0.30
2023-04-11T13:33:04.969Z,0.43
2023-04-11T13:35:33.190Z,0.30
2023-04-11T13:38:01.695Z,1.25
2023-04-11T13:40:29.939Z,1.30
2023-04-11T13:42:58.164Z,0.45
2023-04-11T13:45:26.425Z,0.75
2023-04-11T13:47:54.680Z,0.32
2023-04-11T13:50:22.898Z,0.40
2023-04-11T13:52:51.727Z,0.65
2023-04-11T13:55:20.090Z,0.30
2023-04-11T13:57:48.519Z,0.57
2023-04-11T14:00:17.211Z,0.82
2023-04-11T14:02:45.673Z,0.30
2023-04-11T14:05:14.050Z,0.30
2023-04-11T14:07:42.572Z,0.47
2023-04-11T14:10:11.170Z,0.57
2023-04-11T14:12:39.626Z,0.40
2023-04-11T14:15:08.750Z,1.77
2023-04-11T14:17:37.221Z,0.40
2023-04-11T14:20:07.771Z,0.43
2023-04-11T14:22:36.748Z,0.38
2023-04-11T14:25:06.338Z,0.35
2023-04-11T14:27:34.528Z,0.20
2023-04-11T14:30:02.896Z,0.82
2023-04-11T14:32:31.103Z,1.15
2023-04-11T14:35:02.360Z,0.30
2023-04-11T14:37:31.126Z,0.32
2023-04-11T14:39:59.479Z,0.30
2023-04-11T14:42:27.822Z,0.20
2023-04-11T14:44:56.053Z,0.85
2023-04-11T14:47:24.353Z,0.20
2023-04-11T14:49:52.554Z,0.28
2023-04-11T14:52:20.866Z,0.30
2023-04-11T14:54:49.648Z,0.30
2023-04-11T14:57:18.080Z,0.68
2023-04-11T14:59:46.694Z,0.30
2023-04-11T15:02:15.072Z,2.80
2023-04-11T15:04:43.375Z,0.40
2023-04-11T15:07:11.603Z,0.30
2023-04-11T15:09:39.824Z,1.15
2023-04-11T15:12:08.073Z,0.20
2023-04-11T15:14:36.259Z,0.65
2023-04-11T15:17:04.468Z,0.50
2023-04-11T15:19:32.657Z,1.55
2023-04-11T15:22:00.921Z,0.50
2023-04-11T15:24:29.232Z,0.70
2023-04-11T15:26:57.692Z,0.30
2023-04-11T15:29:26.404Z,0.80
2023-04-11T15:31:54.590Z,1.13
2023-04-11T15:34:24.202Z,1.17
2023-04-11T15:36:52.484Z,0.40
2023-04-11T15:39:20.752Z,0.20
2023-04-11T15:41:48.966Z,0.20
2023-04-11T15:44:17.302Z,0.30
2023-04-11T15:46:48.516Z,0.75
2023-04-11T15:49:17.634Z,2.00
2023-04-11T15:51:47.546Z,0.85
2023-04-11T15:54:15.768Z,0.52
2023-04-11T15:56:43.993Z,0.85
2023-04-11T15:59:12.373Z,1.58
2023-04-11T16:01:41.099Z,0.50
2023-04-11T16:04:10.094Z,0.60
2023-04-11T16:06:38.774Z,1.10
2023-04-11T16:09:06.984Z,1.65
2023-04-11T16:11:35.258Z,1.30
2023-04-11T16:14:03.499Z,1.55
2023-04-11T16:16:32.036Z,1.42
2023-04-11T16:19:00.685Z,0.75
2023-04-11T16:21:28.864Z,1.13
2023-04-11T16:23:57.503Z,0.50
2023-04-11T16:26:25.951Z,1.95
2023-04-11T16:28:54.331Z,0.55
2023-04-11T16:31:25.499Z,0.93
2023-04-11T16:33:55.169Z,1.10
2023-04-11T16:36:24.063Z,1.17
2023-04-11T16:38:52.492Z,0.93
2023-04-11T16:41:20.740Z,1.02
2023-04-11T16:43:49.006Z,1.25
2023-04-11T16:46:17.445Z,1.10
2023-04-11T16:48:46.061Z,1.35
2023-04-11T16:51:14.510Z,1.55
2023-04-11T16:53:42.781Z,1.38
2023-04-11T16:56:11.452Z,1.60
2023-04-11T16:58:39.787Z,1.40
2023-04-11T17:01:08.205Z,2.70
2023-04-11T17:03:36.665Z,1.20
2023-04-11T17:06:05.340Z,1.10
2023-04-11T17:08:33.584Z,1.35
2023-04-11T17:11:09.949Z,1.13
2023-04-11T17:13:42.912Z,1.52
2023-04-11T17:16:11.313Z,0.40
2023-04-11T17:18:39.680Z,0.60
2023-04-11T17:21:08.297Z,1.55
2023-04-11T17:23:43.154Z,0.60
2023-04-11T17:26:12.553Z,0.70
2023-04-11T17:28:41.871Z,0.70
2023-04-11T17:31:14.527Z,1.33
2023-04-11T17:33:43.564Z,1.25
2023-04-11T17:36:14.595Z,0.35
2023-04-11T17:38:46.419Z,1.23
2023-04-11T17:41:15.651Z,0.90
2023-04-11T17:43:44.996Z,1.83
2023-04-11T17:46:14.501Z,0.60
2023-04-11T17:48:43.008Z,1.08
2023-04-11T17:51:11.324Z,1.67
2023-04-11T17:53:39.656Z,0.85
2023-04-11T17:56:08.509Z,0.85
2023-04-11T17:58:36.849Z,1.42
2023-04-11T18:01:10.342Z,0.50
2023-04-11T18:03:40.500Z,1.05
2023-04-11T18:06:09.340Z,0.70
2023-04-11T18:08:50.546Z,0.90
2023-04-11T18:11:20.147Z,0.88
2023-04-11T18:13:50.271Z,0.70
2023-04-11T18:16:19.315Z,0.70
2023-04-11T18:18:49.350Z,0.70
2023-04-11T18:21:18.422Z,0.50
2023-04-11T18:23:46.822Z,0.80
2023-04-11T18:26:15.071Z,0.65
2023-04-11T18:28:43.319Z,0.80
2023-04-11T18:31:12.479Z,1.02
2023-04-11T18:33:44.036Z,1.00
2023-04-11T18:36:28.156Z,0.93
2023-04-11T18:38:56.847Z,0.70
2023-04-11T18:41:26.108Z,0.60
2023-04-11T18:43:54.462Z,1.13
2023-04-11T18:46:22.800Z,1.25
2023-04-11T18:48:51.309Z,0.93
2023-04-11T18:51:20.982Z,1.50
2023-04-11T18:53:49.994Z,0.90
2023-04-11T18:56:18.453Z,0.90
2023-04-11T18:58:50.074Z,0.75
2023-04-11T19:01:22.752Z,1.10
2023-04-11T19:03:51.951Z,0.70
2023-04-11T19:06:20.444Z,0.70
2023-04-11T19:08:49.138Z,0.88
2023-04-11T19:11:17.528Z,1.00
2023-04-11T19:13:45.728Z,1.67
2023-04-11T19:16:14.285Z,0.70
2023-04-11T19:18:42.548Z,1.17
2023-04-11T19:21:10.970Z,1.10
2023-04-11T19:23:39.548Z,1.10
2023-04-11T19:26:08.332Z,0.73
2023-04-11T19:28:37.116Z,0.63
2023-04-11T19:31:05.599Z,0.82
2023-04-11T19:33:34.058Z,0.82
2023-04-11T19:36:02.699Z,1.60
2023-04-11T19:38:31.371Z,1.95
2023-04-11T19:41:10.140Z,0.73
2023-04-11T19:43:38.647Z,1.70
2023-04-11T19:46:10.404Z,1.02
2023-04-11T19:48:41.136Z,2.40
2023-04-11T19:51:10.334Z,1.38
2023-04-11T19:53:39.809Z,1.23
2023-04-11T19:56:11.726Z,1.67
2023-04-11T19:58:40.878Z,2.65
2023-04-11T20:01:10.526Z,3.15
2023-04-11T20:03:39.032Z,3.60
2023-04-11T20:06:08.350Z,3.17
2023-04-11T20:08:38.967Z,2.55
2023-04-11T20:11:07.366Z,2.47
2023-04-11T20:13:36.836Z,4.03
2023-04-11T20:16:09.406Z,3.40
2023-04-11T20:18:37.704Z,3.55
2023-04-11T20:21:08.433Z,3.08
2023-04-11T20:23:37.930Z,3.25
2023-04-11T20:26:06.437Z,5.60
2023-04-11T20:28:34.660Z,4.03
2023-04-11T20:31:05.085Z,3.17
2023-04-11T20:33:33.418Z,3.85
2023-04-11T20:36:03.648Z,2.72
2023-04-11T20:38:32.227Z,2.13
2023-04-11T20:41:04.481Z,4.35
2023-04-11T20:43:32.966Z,3.72
2023-04-11T20:46:01.226Z,5.10
2023-04-11T20:48:30.590Z,3.80
2023-04-11T20:51:02.610Z,2.90
2023-04-11T20:53:30.963Z,3.28
2023-04-11T20:55:59.468Z,3.88
2023-04-11T20:58:28.442Z,3.28
2023-04-11T21:00:56.829Z,3.72
2023-04-11T21:03:25.213Z,2.58
2023-04-11T21:05:53.523Z,4.28
2023-04-11T21:08:21.727Z,3.58
2023-04-11T21:10:49.942Z,4.72
2023-04-11T21:13:18.189Z,3.53
2023-04-11T21:15:46.565Z,2.55
2023-04-11T21:18:14.926Z,4.43
2023-04-11T21:20:43.198Z,5.78
2023-04-11T21:23:11.518Z,3.63
2023-04-11T21:25:39.748Z,7.18
2023-04-11T21:28:08.080Z,5.47
2023-04-11T21:30:36.549Z,3.42
2023-04-11T21:33:04.840Z,2.97
2023-04-11T21:35:33.170Z,4.00
2023-04-11T21:38:01.696Z,2.55
2023-04-11T21:40:29.971Z,4.28
2023-04-11T21:42:58.281Z,9.50
2023-04-11T21:45:26.714Z,4.82
2023-04-11T21:47:55.006Z,3.03
2023-04-11T21:50:23.401Z,2.15
2023-04-11T21:52:53.351Z,3.95
2023-04-11T21:55:21.923Z,3.97
2023-04-11T21:57:50.161Z,6.53
2023-04-11T22:00:19.065Z,2.67
2023-04-11T22:02:47.632Z,3.50
2023-04-11T22:05:18.337Z,1.83
2023-04-11T22:07:49.503Z,2.22
2023-04-11T22:10:24.039Z,4.20
2023-04-11T22:12:55.185Z,2.97
2023-04-11T22:15:24.883Z,2.35
2023-04-11T22:17:55.176Z,6.28
2023-04-11T22:20:23.432Z,3.72
2023-04-11T22:22:51.637Z,2.75
2023-04-11T22:25:23.147Z,5.20
2023-04-11T22:27:55.066Z,4.30
2023-04-11T22:30:24.434Z,4.13
2023-04-11T22:32:54.847Z,3.60
2023-04-11T22:35:26.716Z,5.43
2023-04-11T22:38:00.006Z,6.35
2023-04-11T22:40:28.362Z,5.00
2023-04-11T22:42:56.663Z,3.53
2023-04-11T22:45:25.141Z,6.07
2023-04-11T22:47:55.168Z,3.97
2023-04-11T22:50:23.520Z,5.35
2023-04-11T22:52:51.816Z,4.93
2023-04-11T22:55:20.910Z,4.78
2023-04-11T22:57:49.442Z,7.65
2023-04-11T23:00:19.998Z,5.22
2023-04-11T23:02:48.636Z,2.95
2023-04-11T23:05:17.717Z,4.03
2023-04-11T23:07:46.397Z,4.72
2023-04-11T23:10:18.158Z,5.18
2023-04-11T23:12:46.631Z,5.13
2023-04-11T23:15:16.283Z,3.63
2023-04-11T23:17:44.672Z,5.70
2023-04-11T23:20:13.996Z,3.80
2023-04-11T23:22:44.622Z,4.85
2023-04-11T23:25:15.943Z,4.55
2023-04-11T23:27:45.805Z,3.72
2023-04-11T23:30:15.212Z,5.47
2023-04-11T23:32:43.825Z,8.95
2023-04-11T23:35:12.664Z,5.55
2023-04-11T23:37:41.740Z,5.10
2023-04-11T23:40:14.637Z,4.00
2023-04-11T23:42:43.275Z,6.45
2023-04-11T23:45:12.633Z,6.32
2023-04-11T23:47:40.982Z,6.80
2023-04-11T23:50:10.250Z,5.50
2023-04-11T23:52:38.483Z,5.93
2023-04-11T23:55:08.194Z,5.75
2023-04-11T23:57:36.492Z,6.15
